ITY265 LICD-LIRF
Flight info
| Callsign | ITY265 |
|---|---|
| Flight time | N/A |
| Altitude | 35000 |
| Route | LPD DCT KOLEX DCT SENTI DCT KAPIL DCT RONAB DCT ESINO |
| Aircraft | A20N/M-SDE2E3FGHIRWXY/LB1 |
Departure
| Time | 2026-04-14 16:57 |
|---|---|
| Airport | Lampedusa Airport (LICD) |
Arrival
| Time | N/A |
|---|---|
| Airport | Rome–Fiumicino Leonardo da Vinci International Airport (LIRF) |
| Time | Latitude | Longitude | Altitude | Speed | Heading |
|---|---|---|---|---|---|
| 2026-04-14 16:47 | 35.50012 | 12.61910 | 57 ft | 0 kts | 98° |
| 2026-04-14 16:52 | 35.50010 | 12.61912 | 57 ft | 0 kts | 123° |
| 2026-04-14 16:52 | 35.50005 | 12.61912 | 51 ft | 1 kts | 164° |
| 2026-04-14 16:52 | 35.49990 | 12.61909 | 55 ft | 5 kts | 186° |
| 2026-04-14 16:52 | 35.49956 | 12.61928 | 54 ft | 7 kts | 148° |
| 2026-04-14 16:53 | 35.49905 | 12.61944 | 53 ft | 9 kts | 170° |
| 2026-04-14 16:53 | 35.49833 | 12.61962 | 54 ft | 11 kts | 159° |
| 2026-04-14 16:53 | 35.49822 | 12.62043 | 53 ft | 10 kts | 82° |
| 2026-04-14 16:53 | 35.49833 | 12.62129 | 60 ft | 10 kts | 81° |
| 2026-04-14 16:54 | 35.49845 | 12.62213 | 63 ft | 10 kts | 79° |
| 2026-04-14 16:54 | 35.49863 | 12.62325 | 58 ft | 17 kts | 79° |
| 2026-04-14 16:54 | 35.49887 | 12.62479 | 66 ft | 19 kts | 80° |
| 2026-04-14 16:54 | 35.49909 | 12.62642 | 66 ft | 19 kts | 80° |
| 2026-04-14 16:55 | 35.49933 | 12.62813 | 68 ft | 22 kts | 79° |
| 2026-04-14 16:55 | 35.49972 | 12.62909 | 62 ft | 11 kts | 79° |
| 2026-04-14 16:55 | 35.49947 | 12.62911 | 63 ft | 5 kts | 230° |
| 2026-04-14 16:55 | 35.49944 | 12.62895 | 62 ft | 0 kts | 261° |
| 2026-04-14 16:56 | 35.49902 | 12.62580 | 68 ft | 80 kts | 261° |
| 2026-04-14 16:56 | 35.49770 | 12.61599 | 56 ft | 149 kts | 261° |
| 2026-04-14 16:57 | 35.49595 | 12.60313 | 772 ft | 152 kts | 262° |
| 2026-04-14 16:57 | 35.49383 | 12.59018 | 1560 ft | 161 kts | 258° |
| 2026-04-14 16:57 | 35.49148 | 12.57667 | 2326 ft | 161 kts | 257° |
| 2026-04-14 16:57 | 35.48942 | 12.56347 | 3136 ft | 155 kts | 259° |
| 2026-04-14 16:58 | 35.48766 | 12.55058 | 3890 ft | 151 kts | 260° |
| 2026-04-14 16:58 | 35.48606 | 12.53786 | 4510 ft | 157 kts | 261° |
| 2026-04-14 16:58 | 35.48452 | 12.52399 | 5075 ft | 165 kts | 268° |
| 2026-04-14 16:58 | 35.48907 | 12.51126 | 5744 ft | 174 kts | 318° |
| 2026-04-14 16:59 | 35.50096 | 12.50705 | 6249 ft | 198 kts | 2° |
| 2026-04-14 16:59 | 35.51516 | 12.51140 | 6614 ft | 222 kts | 17° |
| 2026-04-14 16:59 | 35.53032 | 12.51878 | 6959 ft | 245 kts | 21° |
| 2026-04-14 16:59 | 35.54663 | 12.52741 | 7365 ft | 264 kts | 21° |
| 2026-04-14 17:00 | 35.56346 | 12.53650 | 8105 ft | 269 kts | 21° |
| 2026-04-14 17:00 | 35.58081 | 12.54591 | 8907 ft | 274 kts | 21° |
| 2026-04-14 17:00 | 35.59844 | 12.55546 | 9657 ft | 280 kts | 21° |
| 2026-04-14 17:00 | 35.61650 | 12.56501 | 10367 ft | 284 kts | 15° |
| 2026-04-14 17:01 | 35.63552 | 12.56800 | 11075 ft | 277 kts | 348° |
| 2026-04-14 17:01 | 35.65364 | 12.56085 | 11708 ft | 273 kts | 326° |
| 2026-04-14 17:01 | 35.67036 | 12.54953 | 12440 ft | 276 kts | 324° |
| 2026-04-14 17:01 | 35.68747 | 12.53843 | 13190 ft | 281 kts | 327° |
| 2026-04-14 17:02 | 35.70536 | 12.52809 | 13822 ft | 291 kts | 329° |
| 2026-04-14 17:02 | 35.71801 | 12.52128 | 13966 ft | 307 kts | 331° |
| 2026-04-14 17:02 | 35.73857 | 12.51081 | 14159 ft | 330 kts | 332° |
| 2026-04-14 17:02 | 35.76065 | 12.49999 | 14358 ft | 351 kts | 333° |
| 2026-04-14 17:03 | 35.78488 | 12.49088 | 14575 ft | 376 kts | 345° |
| 2026-04-14 17:03 | 35.81109 | 12.48812 | 15109 ft | 389 kts | 357° |
| 2026-04-14 17:03 | 35.83834 | 12.49128 | 15779 ft | 395 kts | 3° |
| 2026-04-14 17:03 | 35.86593 | 12.49521 | 16405 ft | 400 kts | 2° |
| 2026-04-14 17:04 | 35.89387 | 12.49908 | 17024 ft | 405 kts | 2° |
| 2026-04-14 17:04 | 35.92203 | 12.50293 | 17651 ft | 409 kts | 2° |
| 2026-04-14 17:04 | 35.95008 | 12.50676 | 18269 ft | 413 kts | 2° |
| 2026-04-14 17:04 | 35.97879 | 12.51070 | 18817 ft | 416 kts | 2° |
| 2026-04-14 17:05 | 36.00775 | 12.51468 | 19386 ft | 419 kts | 2° |
| 2026-04-14 17:05 | 36.03693 | 12.51870 | 19936 ft | 423 kts | 2° |
| 2026-04-14 17:05 | 36.06645 | 12.52276 | 20505 ft | 426 kts | 2° |
| 2026-04-14 17:05 | 36.09564 | 12.52679 | 21045 ft | 430 kts | 2° |
| 2026-04-14 17:06 | 36.12554 | 12.53091 | 21589 ft | 433 kts | 2° |
| 2026-04-14 17:06 | 36.15565 | 12.53507 | 22137 ft | 436 kts | 2° |
| 2026-04-14 17:06 | 36.18591 | 12.53925 | 22683 ft | 439 kts | 2° |
| 2026-04-14 17:06 | 36.21653 | 12.54349 | 23212 ft | 443 kts | 2° |
| 2026-04-14 17:07 | 36.24691 | 12.54769 | 23680 ft | 446 kts | 2° |
| 2026-04-14 17:07 | 36.27786 | 12.55198 | 24115 ft | 449 kts | 2° |
| 2026-04-14 17:07 | 36.30915 | 12.55632 | 24557 ft | 452 kts | 2° |
| 2026-04-14 17:07 | 36.34058 | 12.56068 | 24973 ft | 455 kts | 2° |
| 2026-04-14 17:08 | 36.37185 | 12.56502 | 25375 ft | 458 kts | 2° |
| 2026-04-14 17:08 | 36.40368 | 12.56944 | 25780 ft | 461 kts | 2° |
| 2026-04-14 17:08 | 36.43578 | 12.57389 | 26187 ft | 464 kts | 2° |
| 2026-04-14 17:08 | 36.46800 | 12.57837 | 26593 ft | 466 kts | 2° |
| 2026-04-14 17:09 | 36.50012 | 12.58204 | 26986 ft | 466 kts | 357° |
| 2026-04-14 17:09 | 36.53247 | 12.58129 | 27360 ft | 466 kts | 352° |
| 2026-04-14 17:09 | 36.56508 | 12.57957 | 27738 ft | 468 kts | 353° |
| 2026-04-14 17:09 | 36.59790 | 12.57795 | 28104 ft | 471 kts | 353° |
| 2026-04-14 17:10 | 36.63077 | 12.57636 | 28458 ft | 473 kts | 353° |
| 2026-04-14 17:10 | 36.66337 | 12.57478 | 28806 ft | 475 kts | 353° |
| 2026-04-14 17:10 | 36.69664 | 12.57315 | 29132 ft | 478 kts | 353° |
| 2026-04-14 17:10 | 36.73002 | 12.57152 | 29466 ft | 480 kts | 353° |
| 2026-04-14 17:11 | 36.76349 | 12.56987 | 29782 ft | 482 kts | 353° |
| 2026-04-14 17:11 | 36.79677 | 12.56823 | 30093 ft | 484 kts | 353° |
| 2026-04-14 17:11 | 36.83051 | 12.56657 | 30377 ft | 486 kts | 353° |
| 2026-04-14 17:11 | 36.86449 | 12.56489 | 30672 ft | 487 kts | 353° |
| 2026-04-14 17:12 | 36.89848 | 12.56322 | 30960 ft | 489 kts | 353° |
| 2026-04-14 17:12 | 36.93212 | 12.56156 | 31298 ft | 489 kts | 353° |
| 2026-04-14 17:12 | 36.96612 | 12.55989 | 31670 ft | 488 kts | 353° |
| 2026-04-14 17:12 | 37.00014 | 12.55821 | 32039 ft | 487 kts | 353° |
| 2026-04-14 17:13 | 37.03401 | 12.55654 | 32405 ft | 487 kts | 353° |
| 2026-04-14 17:13 | 37.06783 | 12.55487 | 32753 ft | 486 kts | 354° |
| 2026-04-14 17:13 | 37.10170 | 12.55318 | 33102 ft | 485 kts | 354° |
| 2026-04-14 17:13 | 37.13541 | 12.55151 | 33428 ft | 485 kts | 354° |
| 2026-04-14 17:14 | 37.16845 | 12.54789 | 33741 ft | 480 kts | 347° |
| 2026-04-14 17:14 | 37.20101 | 12.53932 | 34021 ft | 475 kts | 340° |
| 2026-04-14 17:14 | 37.23282 | 12.52790 | 34253 ft | 475 kts | 339° |
| 2026-04-14 17:14 | 37.26474 | 12.51664 | 34519 ft | 474 kts | 340° |
| 2026-04-14 17:15 | 37.29652 | 12.50550 | 34773 ft | 473 kts | 340° |
| 2026-04-14 17:15 | 37.32796 | 12.49445 | 34884 ft | 473 kts | 340° |
| 2026-04-14 17:15 | 37.39111 | 12.47217 | 34892 ft | 471 kts | 340° |
| 2026-04-14 17:16 | 37.45430 | 12.44977 | 34892 ft | 471 kts | 340° |
| 2026-04-14 17:16 | 37.51765 | 12.42727 | 34889 ft | 471 kts | 340° |
| 2026-04-14 17:17 | 37.58043 | 12.40495 | 34885 ft | 471 kts | 340° |
| 2026-04-14 17:17 | 37.64369 | 12.38241 | 34886 ft | 471 kts | 340° |
| 2026-04-14 17:18 | 37.70639 | 12.36003 | 34887 ft | 471 kts | 340° |
| 2026-04-14 17:18 | 37.76950 | 12.33747 | 34887 ft | 470 kts | 340° |
| 2026-04-14 17:19 | 37.83261 | 12.31486 | 34888 ft | 470 kts | 341° |
| 2026-04-14 17:19 | 37.89564 | 12.29225 | 34884 ft | 470 kts | 341° |
| 2026-04-14 17:20 | 37.95832 | 12.26972 | 34884 ft | 470 kts | 341° |
| 2026-04-14 17:20 | 38.02129 | 12.24705 | 34882 ft | 470 kts | 341° |
| 2026-04-14 17:21 | 38.08427 | 12.22433 | 34885 ft | 470 kts | 341° |
| 2026-04-14 17:21 | 38.14693 | 12.20169 | 34883 ft | 470 kts | 341° |
| 2026-04-14 17:22 | 38.20991 | 12.17890 | 34887 ft | 470 kts | 341° |
| 2026-04-14 17:22 | 38.27287 | 12.15606 | 34888 ft | 470 kts | 341° |
| 2026-04-14 17:23 | 38.33555 | 12.13331 | 34890 ft | 470 kts | 342° |
| 2026-04-14 17:23 | 38.40018 | 12.11919 | 34890 ft | 472 kts | 351° |
| 2026-04-14 17:24 | 38.46539 | 12.10931 | 34897 ft | 472 kts | 351° |
| 2026-04-14 17:24 | 38.53073 | 12.09925 | 34897 ft | 471 kts | 351° |
| 2026-04-14 17:25 | 38.59546 | 12.08934 | 34899 ft | 471 kts | 351° |
| 2026-04-14 17:25 | 38.66057 | 12.07938 | 34894 ft | 470 kts | 351° |
| 2026-04-14 17:26 | 38.72534 | 12.06946 | 34892 ft | 470 kts | 351° |
| 2026-04-14 17:26 | 38.79043 | 12.05947 | 34892 ft | 469 kts | 351° |
| 2026-04-14 17:27 | 38.85486 | 12.04957 | 34890 ft | 469 kts | 351° |
| 2026-04-14 17:27 | 38.91968 | 12.03958 | 34890 ft | 468 kts | 351° |
| 2026-04-14 17:28 | 38.98443 | 12.02959 | 34883 ft | 468 kts | 351° |
| 2026-04-14 17:28 | 39.04914 | 12.01958 | 34885 ft | 468 kts | 351° |
| 2026-04-14 17:29 | 39.11346 | 12.00962 | 34881 ft | 468 kts | 352° |
| 2026-04-14 17:29 | 39.17820 | 11.99957 | 34884 ft | 468 kts | 352° |
| 2026-04-14 17:30 | 39.24298 | 11.98950 | 34885 ft | 468 kts | 352° |
| 2026-04-14 17:30 | 39.30742 | 11.97946 | 34883 ft | 468 kts | 352° |